createdAt,value
2023-03-22T00:02:26.168Z,6.30
2023-03-22T00:04:56.682Z,4.65
2023-03-22T00:07:25.163Z,4.95
2023-03-22T00:09:53.559Z,4.63
2023-03-22T00:12:21.782Z,3.92
2023-03-22T00:14:50.146Z,4.18
2023-03-22T00:17:18.644Z,4.32
2023-03-22T00:19:47.544Z,4.88
2023-03-22T00:22:17.194Z,4.47
2023-03-22T00:24:46.368Z,4.60
2023-03-22T00:27:14.653Z,4.72
2023-03-22T00:29:44.021Z,4.20
2023-03-22T00:32:12.351Z,4.72
2023-03-22T00:34:40.759Z,4.53
2023-03-22T00:37:09.167Z,4.63
2023-03-22T00:39:39.151Z,4.55
2023-03-22T00:42:08.072Z,4.70
2023-03-22T00:44:36.870Z,3.92
2023-03-22T00:47:05.150Z,4.45
2023-03-22T00:49:35.209Z,4.47
2023-03-22T00:52:03.659Z,4.22
2023-03-22T00:54:31.892Z,4.60
2023-03-22T00:57:01.654Z,4.40
2023-03-22T00:59:30.852Z,4.68
2023-03-22T01:02:01.010Z,4.53
2023-03-22T01:04:29.373Z,4.68
2023-03-22T01:07:02.168Z,4.95
2023-03-22T01:12:03.682Z,4.32
2023-03-22T01:14:32.571Z,4.78
2023-03-22T01:17:00.856Z,4.97
2023-03-22T01:19:29.169Z,4.97
2023-03-22T01:21:57.714Z,4.47
2023-03-22T01:24:26.486Z,4.63
2023-03-22T01:26:54.949Z,4.57
2023-03-22T01:29:24.902Z,4.60
2023-03-22T01:31:53.880Z,4.55
2023-03-22T01:34:23.040Z,4.50
2023-03-22T01:36:52.081Z,4.93
2023-03-22T01:39:20.747Z,5.05
2023-03-22T01:44:22.670Z,4.70
2023-03-22T01:46:54.138Z,4.88
2023-03-22T01:49:26.143Z,4.97
2023-03-22T01:51:56.971Z,4.80
2023-03-22T01:54:48.177Z,4.93
2023-03-22T01:57:28.725Z,4.82
2023-03-22T02:00:00.803Z,5.20
2023-03-22T02:03:07.209Z,4.78
2023-03-22T02:05:45.614Z,5.07
2023-03-22T02:08:15.065Z,5.03
2023-03-22T02:11:02.878Z,4.95
2023-03-22T02:13:53.844Z,4.88
2023-03-22T02:17:00.059Z,4.90
2023-03-22T02:20:28.431Z,4.95
2023-03-22T02:23:26.882Z,4.93
2023-03-22T02:26:41.519Z,5.28
2023-03-22T02:29:15.814Z,4.65
2023-03-22T02:32:16.144Z,5.07
2023-03-22T02:35:07.000Z,5.22
2023-03-22T02:38:04.068Z,4.88
2023-03-22T02:40:38.894Z,5.00
2023-03-22T02:43:16.585Z,4.85
2023-03-22T02:45:48.213Z,4.40
2023-03-22T02:50:52.709Z,4.55
2023-03-22T02:53:25.528Z,5.05
2023-03-22T02:55:59.558Z,4.82
2023-03-22T02:58:30.911Z,4.57
2023-03-22T03:01:03.938Z,4.00
2023-03-22T03:03:39.682Z,4.57
2023-03-22T03:06:12.713Z,4.38
2023-03-22T03:08:42.249Z,4.90
2023-03-22T03:11:12.995Z,5.40
2023-03-22T03:13:41.991Z,4.55
2023-03-22T03:16:17.668Z,4.60
2023-03-22T03:18:50.923Z,4.90
2023-03-22T03:21:32.671Z,4.53
2023-03-22T03:24:18.806Z,4.40
2023-03-22T03:26:57.422Z,4.68
2023-03-22T03:29:34.401Z,4.70
2023-03-22T03:32:07.562Z,4.15
2023-03-22T03:34:43.449Z,4.50
2023-03-22T03:37:15.903Z,4.45
2023-03-22T03:39:48.090Z,4.30
2023-03-22T03:42:19.443Z,4.50
2023-03-22T03:44:48.332Z,3.95
2023-03-22T03:47:17.279Z,4.43
2023-03-22T03:49:47.069Z,4.25
2023-03-22T03:52:15.763Z,3.95
2023-03-22T03:54:45.675Z,4.18
2023-03-22T03:57:19.556Z,3.85
2023-03-22T03:59:48.919Z,3.83
2023-03-22T04:02:27.273Z,4.13
2023-03-22T04:04:59.146Z,4.07
2023-03-22T04:07:27.785Z,3.85
2023-03-22T04:09:56.102Z,3.80
2023-03-22T04:12:31.171Z,3.80
2023-03-22T04:15:13.771Z,3.70
2023-03-22T04:17:44.182Z,4.47
2023-03-22T04:20:13.899Z,4.43
2023-03-22T04:22:43.140Z,3.80
2023-03-22T04:25:15.059Z,3.83
2023-03-22T04:27:55.969Z,3.50
2023-03-22T04:30:27.548Z,3.45
2023-03-22T04:33:06.916Z,3.60
2023-03-22T04:35:57.111Z,3.97
2023-03-22T04:38:31.984Z,4.00
2023-03-22T04:41:00.803Z,3.70
2023-03-22T04:43:47.126Z,3.38
2023-03-22T04:46:17.880Z,3.75
2023-03-22T04:48:54.598Z,3.25
2023-03-22T04:51:23.637Z,3.20
2023-03-22T04:54:20.921Z,3.33
2023-03-22T04:56:50.842Z,3.20
2023-03-22T04:59:23.308Z,2.78
2023-03-22T05:01:52.526Z,2.97
2023-03-22T05:04:25.882Z,3.25
2023-03-22T05:07:00.543Z,2.92
2023-03-22T05:09:38.061Z,3.10
2023-03-22T05:12:06.634Z,3.20
2023-03-22T05:15:01.207Z,2.80
2023-03-22T05:17:34.769Z,2.83
2023-03-22T05:20:09.529Z,2.90
2023-03-22T05:22:40.941Z,3.60
2023-03-22T05:25:12.304Z,3.20
2023-03-22T05:27:45.001Z,2.75
2023-03-22T05:30:33.996Z,2.78
2023-03-22T05:33:09.561Z,2.95
2023-03-22T05:35:44.350Z,2.90
2023-03-22T05:38:13.218Z,3.30
2023-03-22T05:40:46.811Z,2.95
2023-03-22T05:43:15.623Z,3.10
2023-03-22T05:45:49.617Z,3.05
2023-03-22T05:48:34.923Z,3.13
2023-03-22T05:51:05.103Z,2.95
2023-03-22T05:53:35.376Z,3.40
2023-03-22T05:56:29.734Z,3.40
2023-03-22T05:59:06.250Z,3.97
2023-03-22T06:01:36.520Z,3.17
2023-03-22T06:04:18.719Z,3.13
2023-03-22T06:09:38.303Z,4.25
2023-03-22T06:12:10.265Z,7.80
2023-03-22T06:14:39.247Z,5.78
2023-03-22T06:17:20.190Z,5.35
2023-03-22T06:19:52.857Z,5.00
2023-03-22T06:22:23.090Z,4.32
2023-03-22T06:24:52.046Z,4.05
2023-03-22T06:27:30.462Z,3.75
2023-03-22T06:29:58.991Z,3.45
2023-03-22T06:32:29.346Z,3.78
2023-03-22T06:34:58.548Z,3.83
2023-03-22T06:37:27.362Z,3.92
2023-03-22T06:39:56.996Z,3.28
2023-03-22T06:42:27.237Z,3.13
2023-03-22T06:45:07.999Z,3.50
2023-03-22T06:47:40.106Z,3.35
2023-03-22T06:50:28.185Z,3.40
2023-03-22T06:53:04.747Z,3.08
2023-03-22T06:55:34.634Z,2.85
2023-03-22T06:58:12.130Z,2.45
2023-03-22T07:00:43.088Z,2.80
2023-03-22T07:03:13.930Z,3.20
2023-03-22T07:05:54.269Z,3.10
2023-03-22T07:08:22.638Z,2.88
2023-03-22T07:10:52.448Z,2.85
2023-03-22T07:13:24.659Z,2.63
2023-03-22T07:15:58.583Z,2.40
2023-03-22T07:18:57.325Z,2.45
2023-03-22T07:21:25.699Z,2.47
2023-03-22T07:23:58.801Z,2.53
2023-03-22T07:26:30.561Z,2.42
2023-03-22T07:29:00.231Z,2.47
2023-03-22T07:31:35.706Z,2.25
2023-03-22T07:34:12.845Z,1.92
2023-03-22T07:36:58.845Z,2.03
2023-03-22T07:39:28.970Z,2.20
2023-03-22T07:41:57.885Z,2.00
2023-03-22T07:44:27.901Z,2.42
2023-03-22T07:47:37.806Z,2.10
2023-03-22T07:50:36.086Z,2.40
2023-03-22T07:53:06.736Z,1.88
2023-03-22T07:55:36.449Z,2.42
2023-03-22T07:58:06.086Z,2.10
2023-03-22T08:00:34.641Z,2.40
2023-03-22T08:03:23.340Z,2.33
2023-03-22T08:06:06.625Z,2.22
2023-03-22T08:08:37.910Z,2.50
2023-03-22T08:11:07.758Z,2.17
2023-03-22T08:13:36.468Z,1.75
2023-03-22T08:16:05.533Z,1.98
2023-03-22T08:18:34.083Z,2.15
2023-03-22T08:21:04.392Z,1.92
2023-03-22T08:23:41.824Z,2.05
2023-03-22T08:26:13.212Z,2.10
2023-03-22T08:28:41.692Z,2.03
2023-03-22T08:31:15.326Z,2.03
2023-03-22T08:33:45.744Z,2.40
2023-03-22T08:36:18.502Z,1.90
2023-03-22T08:38:57.979Z,2.60
2023-03-22T08:41:37.899Z,2.47
2023-03-22T08:44:07.102Z,2.75
2023-03-22T08:46:36.727Z,2.42
2023-03-22T08:49:05.075Z,3.00
2023-03-22T08:51:41.952Z,3.17
2023-03-22T08:54:18.296Z,3.28
2023-03-22T08:56:55.287Z,2.80
2023-03-22T08:59:34.659Z,2.83
2023-03-22T09:02:23.441Z,3.25
2023-03-22T09:04:51.969Z,3.15
2023-03-22T09:07:22.555Z,3.33
2023-03-22T09:10:01.428Z,3.78
2023-03-22T09:12:29.984Z,3.40
2023-03-22T09:14:58.328Z,3.78
2023-03-22T09:17:29.184Z,3.90
2023-03-22T09:20:11.481Z,3.50
2023-03-22T09:22:44.265Z,3.78
2023-03-22T09:25:15.995Z,4.00
2023-03-22T09:27:47.378Z,4.10
2023-03-22T09:30:16.084Z,3.60
2023-03-22T09:32:44.365Z,3.90
2023-03-22T09:35:16.492Z,4.00
2023-03-22T09:37:58.876Z,3.88
2023-03-22T09:40:31.436Z,4.10
2023-03-22T09:43:03.438Z,4.15
2023-03-22T09:45:38.518Z,4.38
2023-03-22T09:48:12.286Z,4.40
2023-03-22T09:50:47.711Z,4.60
2023-03-22T09:53:19.091Z,4.53
2023-03-22T09:55:54.378Z,4.03
2023-03-22T09:58:28.399Z,4.22
2023-03-22T10:01:01.305Z,3.83
2023-03-22T10:03:53.695Z,3.67
2023-03-22T10:06:24.378Z,3.83
2023-03-22T10:09:00.715Z,4.13
2023-03-22T10:11:45.712Z,3.80
2023-03-22T10:14:37.338Z,3.70
2023-03-22T10:17:09.673Z,3.63
2023-03-22T10:19:44.760Z,3.67
2023-03-22T10:22:17.633Z,3.70
2023-03-22T10:24:51.134Z,3.53
2023-03-22T10:27:21.367Z,3.75
2023-03-22T10:29:53.071Z,3.30
2023-03-22T10:34:53.793Z,3.25
2023-03-22T10:37:25.522Z,3.20
2023-03-22T10:39:57.255Z,2.92
2023-03-22T10:42:29.164Z,3.22
2023-03-22T10:45:01.753Z,3.00
2023-03-22T10:47:34.331Z,3.20
2023-03-22T10:50:06.237Z,2.78
2023-03-22T10:52:40.598Z,3.10
2023-03-22T10:55:13.618Z,2.60
2023-03-22T10:57:44.114Z,2.35
2023-03-22T11:00:17.948Z,2.97
2023-03-22T11:02:52.504Z,2.33
2023-03-22T11:05:24.791Z,1.80
2023-03-22T11:07:53.595Z,2.28
2023-03-22T11:10:28.127Z,2.60
2023-03-22T11:13:12.044Z,2.40
2023-03-22T11:15:50.221Z,1.92
2023-03-22T11:18:19.895Z,2.20
2023-03-22T11:20:58.114Z,2.05
2023-03-22T11:23:28.650Z,2.13
2023-03-22T11:26:05.024Z,2.00
2023-03-22T11:28:36.597Z,1.70
2023-03-22T11:33:35.468Z,1.90
2023-03-22T11:36:06.428Z,1.85
2023-03-22T11:38:38.718Z,1.70
2023-03-22T11:41:10.173Z,1.73
2023-03-22T11:43:42.382Z,1.83
2023-03-22T11:46:12.335Z,2.25
2023-03-22T11:48:43.370Z,1.58
2023-03-22T11:51:14.977Z,2.22
2023-03-22T11:53:46.513Z,1.80
2023-03-22T11:58:59.515Z,1.88
2023-03-22T12:01:42.012Z,1.70
2023-03-22T12:04:15.091Z,1.92
2023-03-22T12:06:44.269Z,2.05
2023-03-22T12:09:25.712Z,2.40
2023-03-22T12:11:58.359Z,2.25
2023-03-22T12:14:30.033Z,2.15
2023-03-22T12:19:51.030Z,1.92
2023-03-22T12:22:22.565Z,2.17
2023-03-22T12:24:50.816Z,1.90
2023-03-22T12:27:24.262Z,2.40
2023-03-22T12:29:57.783Z,2.20
2023-03-22T12:32:29.638Z,1.63
2023-03-22T12:35:15.966Z,2.03
2023-03-22T12:37:50.029Z,2.17
2023-03-22T12:40:23.943Z,1.90
2023-03-22T12:43:02.028Z,1.90
2023-03-22T12:45:34.122Z,2.22
2023-03-22T12:48:09.254Z,2.10
2023-03-22T12:50:42.976Z,2.00
2023-03-22T12:53:16.354Z,1.92
2023-03-22T12:55:46.169Z,2.22
2023-03-22T12:58:21.101Z,1.77
2023-03-22T13:00:54.163Z,2.15
2023-03-22T13:03:28.949Z,1.67
2023-03-22T13:06:04.754Z,1.67
2023-03-22T13:09:19.021Z,1.65
2023-03-22T13:11:48.999Z,1.98
2023-03-22T13:14:50.474Z,1.65
2023-03-22T13:17:47.112Z,1.73
2023-03-22T13:20:30.895Z,1.50
2023-03-22T13:23:27.376Z,1.80
2023-03-22T13:26:04.374Z,1.40
2023-03-22T13:28:37.371Z,1.73
2023-03-22T13:31:06.671Z,1.60
2023-03-22T13:33:38.715Z,1.55
2023-03-22T13:36:23.000Z,1.30
2023-03-22T13:38:56.869Z,1.33
2023-03-22T13:41:29.876Z,1.50
2023-03-22T13:43:59.996Z,1.48
2023-03-22T13:46:46.726Z,1.60
2023-03-22T13:49:49.513Z,1.33
2023-03-22T13:52:28.428Z,1.40
2023-03-22T13:54:59.432Z,1.50
2023-03-22T13:57:47.721Z,1.27
2023-03-22T14:00:34.255Z,1.40
2023-03-22T14:03:06.699Z,1.40
2023-03-22T14:05:38.769Z,1.38
2023-03-22T14:08:07.621Z,1.50
2023-03-22T14:10:43.003Z,1.48
2023-03-22T14:13:18.413Z,1.48
2023-03-22T14:15:51.728Z,1.48
2023-03-22T14:18:25.787Z,1.30
2023-03-22T14:20:59.146Z,1.35
